sensor_id;sensor_type;location;lat;lon;timestamp;P1;durP1;ratioP1;P2;durP2;ratioP2
50585;SDS011;36542;51.700;8.846;2023-02-22T00:00:15;49.10;;;19.50;;
50585;SDS011;36542;51.700;8.846;2023-02-22T00:02:51;48.97;;;19.70;;
50585;SDS011;36542;51.700;8.846;2023-02-22T00:05:23;51.27;;;21.60;;
50585;SDS011;36542;51.700;8.846;2023-02-22T00:07:51;65.53;;;25.50;;
50585;SDS011;36542;51.700;8.846;2023-02-22T00:10:17;59.40;;;22.87;;
50585;SDS011;36542;51.700;8.846;2023-02-22T00:12:44;62.97;;;23.70;;
50585;SDS011;36542;51.700;8.846;2023-02-22T00:15:14;66.47;;;26.20;;
50585;SDS011;36542;51.700;8.846;2023-02-22T00:17:42;69.73;;;26.57;;
50585;SDS011;36542;51.700;8.846;2023-02-22T00:20:08;72.67;;;27.43;;
50585;SDS011;36542;51.700;8.846;2023-02-22T00:22:38;77.97;;;27.07;;
50585;SDS011;36542;51.700;8.846;2023-02-22T00:25:05;72.27;;;26.40;;
50585;SDS011;36542;51.700;8.846;2023-02-22T00:27:31;72.33;;;27.43;;
50585;SDS011;36542;51.700;8.846;2023-02-22T00:29:56;74.83;;;29.67;;
50585;SDS011;36542;51.700;8.846;2023-02-22T00:32:22;77.93;;;28.97;;
50585;SDS011;36542;51.700;8.846;2023-02-22T00:34:50;69.07;;;27.27;;
50585;SDS011;36542;51.700;8.846;2023-02-22T00:37:17;68.53;;;29.00;;
50585;SDS011;36542;51.700;8.846;2023-02-22T00:39:45;84.50;;;29.23;;
50585;SDS011;36542;51.700;8.846;2023-02-22T00:42:12;81.10;;;28.77;;
50585;SDS011;36542;51.700;8.846;2023-02-22T00:44:37;70.30;;;27.63;;
50585;SDS011;36542;51.700;8.846;2023-02-22T00:47:03;70.10;;;27.77;;
50585;SDS011;36542;51.700;8.846;2023-02-22T00:49:28;75.93;;;28.37;;
50585;SDS011;36542;51.700;8.846;2023-02-22T00:51:54;73.67;;;27.07;;
50585;SDS011;36542;51.700;8.846;2023-02-22T00:54:19;67.47;;;28.53;;
50585;SDS011;36542;51.700;8.846;2023-02-22T00:56:45;71.67;;;27.17;;
50585;SDS011;36542;51.700;8.846;2023-02-22T00:59:10;71.13;;;26.67;;
50585;SDS011;36542;51.700;8.846;2023-02-22T01:01:36;73.97;;;26.53;;
50585;SDS011;36542;51.700;8.846;2023-02-22T01:04:02;78.07;;;29.73;;
50585;SDS011;36542;51.700;8.846;2023-02-22T01:06:27;75.03;;;27.47;;
50585;SDS011;36542;51.700;8.846;2023-02-22T01:08:53;75.50;;;26.53;;
50585;SDS011;36542;51.700;8.846;2023-02-22T01:11:19;70.53;;;26.93;;
50585;SDS011;36542;51.700;8.846;2023-02-22T01:13:46;72.93;;;26.50;;
50585;SDS011;36542;51.700;8.846;2023-02-22T01:16:11;74.67;;;26.47;;
50585;SDS011;36542;51.700;8.846;2023-02-22T01:18:37;66.00;;;24.77;;
50585;SDS011;36542;51.700;8.846;2023-02-22T01:21:03;69.73;;;24.63;;
50585;SDS011;36542;51.700;8.846;2023-02-22T01:23:30;72.50;;;24.43;;
50585;SDS011;36542;51.700;8.846;2023-02-22T01:25:56;80.40;;;27.20;;
50585;SDS011;36542;51.700;8.846;2023-02-22T01:28:22;77.00;;;25.03;;
50585;SDS011;36542;51.700;8.846;2023-02-22T01:30:48;72.37;;;27.03;;
50585;SDS011;36542;51.700;8.846;2023-02-22T01:33:14;76.60;;;27.13;;
50585;SDS011;36542;51.700;8.846;2023-02-22T01:35:40;73.90;;;25.83;;
50585;SDS011;36542;51.700;8.846;2023-02-22T01:38:07;78.13;;;25.47;;
50585;SDS011;36542;51.700;8.846;2023-02-22T01:40:37;76.83;;;27.60;;
50585;SDS011;36542;51.700;8.846;2023-02-22T01:43:25;68.20;;;26.50;;
50585;SDS011;36542;51.700;8.846;2023-02-22T01:46:06;79.60;;;28.70;;
50585;SDS011;36542;51.700;8.846;2023-02-22T01:48:57;79.17;;;28.60;;
50585;SDS011;36542;51.700;8.846;2023-02-22T01:51:28;79.80;;;29.83;;
50585;SDS011;36542;51.700;8.846;2023-02-22T01:54:03;87.57;;;30.27;;
50585;SDS011;36542;51.700;8.846;2023-02-22T01:56:35;95.53;;;31.40;;
50585;SDS011;36542;51.700;8.846;2023-02-22T01:59:04;101.27;;;35.67;;
50585;SDS011;36542;51.700;8.846;2023-02-22T02:01:35;99.00;;;32.13;;
50585;SDS011;36542;51.700;8.846;2023-02-22T02:04:05;103.80;;;32.90;;
50585;SDS011;36542;51.700;8.846;2023-02-22T02:06:34;107.93;;;36.17;;
50585;SDS011;36542;51.700;8.846;2023-02-22T02:11:53;102.43;;;34.77;;
50585;SDS011;36542;51.700;8.846;2023-02-22T02:14:19;96.90;;;34.23;;
50585;SDS011;36542;51.700;8.846;2023-02-22T02:16:45;110.60;;;35.97;;
50585;SDS011;36542;51.700;8.846;2023-02-22T02:28:13;108.60;;;34.33;;
50585;SDS011;36542;51.700;8.846;2023-02-22T02:30:37;102.07;;;33.13;;
50585;SDS011;36542;51.700;8.846;2023-02-22T02:33:25;109.50;;;34.77;;
50585;SDS011;36542;51.700;8.846;2023-02-22T02:36:01;107.03;;;34.67;;
50585;SDS011;36542;51.700;8.846;2023-02-22T02:38:43;115.63;;;36.17;;
50585;SDS011;36542;51.700;8.846;2023-02-22T02:44:02;102.40;;;34.90;;
50585;SDS011;36542;51.700;8.846;2023-02-22T02:49:57;104.40;;;33.03;;
50585;SDS011;36542;51.700;8.846;2023-02-22T02:52:18;103.20;;;33.30;;
50585;SDS011;36542;51.700;8.846;2023-02-22T02:54:46;110.50;;;36.17;;
50585;SDS011;36542;51.700;8.846;2023-02-22T02:57:13;111.77;;;38.37;;
50585;SDS011;36542;51.700;8.846;2023-02-22T02:59:38;114.90;;;36.67;;
50585;SDS011;36542;51.700;8.846;2023-02-22T03:04:54;118.43;;;38.10;;
50585;SDS011;36542;51.700;8.846;2023-02-22T03:07:37;111.23;;;36.30;;
50585;SDS011;36542;51.700;8.846;2023-02-22T03:12:53;106.30;;;38.03;;
50585;SDS011;36542;51.700;8.846;2023-02-22T03:15:32;117.97;;;36.77;;
50585;SDS011;36542;51.700;8.846;2023-02-22T03:18:12;108.53;;;38.37;;
50585;SDS011;36542;51.700;8.846;2023-02-22T03:23:54;107.30;;;36.83;;
50585;SDS011;36542;51.700;8.846;2023-02-22T03:26:42;119.30;;;36.80;;
50585;SDS011;36542;51.700;8.846;2023-02-22T03:29:13;113.87;;;36.97;;
50585;SDS011;36542;51.700;8.846;2023-02-22T03:31:53;114.27;;;37.70;;
50585;SDS011;36542;51.700;8.846;2023-02-22T03:34:26;105.23;;;35.63;;
50585;SDS011;36542;51.700;8.846;2023-02-22T03:37:10;113.73;;;38.70;;
50585;SDS011;36542;51.700;8.846;2023-02-22T03:39:40;109.53;;;38.20;;
50585;SDS011;36542;51.700;8.846;2023-02-22T03:42:09;114.50;;;38.40;;
50585;SDS011;36542;51.700;8.846;2023-02-22T03:44:39;112.67;;;38.27;;
50585;SDS011;36542;51.700;8.846;2023-02-22T03:47:08;109.33;;;35.37;;
50585;SDS011;36542;51.700;8.846;2023-02-22T03:49:56;109.77;;;37.90;;
50585;SDS011;36542;51.700;8.846;2023-02-22T03:52:33;118.90;;;40.63;;
50585;SDS011;36542;51.700;8.846;2023-02-22T03:54:59;113.00;;;40.53;;
50585;SDS011;36542;51.700;8.846;2023-02-22T03:57:27;106.00;;;36.93;;
50585;SDS011;36542;51.700;8.846;2023-02-22T03:59:57;108.43;;;37.80;;
50585;SDS011;36542;51.700;8.846;2023-02-22T04:02:23;110.80;;;38.33;;
50585;SDS011;36542;51.700;8.846;2023-02-22T04:04:48;113.10;;;38.03;;
50585;SDS011;36542;51.700;8.846;2023-02-22T04:07:14;120.93;;;38.03;;
50585;SDS011;36542;51.700;8.846;2023-02-22T04:09:40;110.23;;;37.63;;
50585;SDS011;36542;51.700;8.846;2023-02-22T04:12:06;117.03;;;40.27;;
50585;SDS011;36542;51.700;8.846;2023-02-22T04:14:32;125.50;;;42.97;;
50585;SDS011;36542;51.700;8.846;2023-02-22T04:16:58;112.13;;;38.30;;
50585;SDS011;36542;51.700;8.846;2023-02-22T04:19:24;119.23;;;37.63;;
50585;SDS011;36542;51.700;8.846;2023-02-22T04:21:49;113.97;;;38.70;;
50585;SDS011;36542;51.700;8.846;2023-02-22T04:24:15;128.23;;;40.60;;
50585;SDS011;36542;51.700;8.846;2023-02-22T04:26:40;125.83;;;40.57;;
50585;SDS011;36542;51.700;8.846;2023-02-22T04:29:06;124.00;;;40.50;;
50585;SDS011;36542;51.700;8.846;2023-02-22T04:31:32;119.80;;;40.30;;
50585;SDS011;36542;51.700;8.846;2023-02-22T04:33:58;116.40;;;38.83;;
50585;SDS011;36542;51.700;8.846;2023-02-22T04:36:24;119.87;;;39.43;;
50585;SDS011;36542;51.700;8.846;2023-02-22T04:38:51;127.70;;;42.33;;
50585;SDS011;36542;51.700;8.846;2023-02-22T04:41:17;129.13;;;42.57;;
50585;SDS011;36542;51.700;8.846;2023-02-22T04:43:44;134.30;;;43.47;;
50585;SDS011;36542;51.700;8.846;2023-02-22T04:46:10;137.10;;;42.80;;
50585;SDS011;36542;51.700;8.846;2023-02-22T04:48:36;125.77;;;41.70;;
50585;SDS011;36542;51.700;8.846;2023-02-22T04:51:01;132.50;;;43.17;;
50585;SDS011;36542;51.700;8.846;2023-02-22T04:53:28;130.40;;;45.00;;
50585;SDS011;36542;51.700;8.846;2023-02-22T04:55:53;130.93;;;40.87;;
50585;SDS011;36542;51.700;8.846;2023-02-22T04:58:19;133.83;;;42.77;;
50585;SDS011;36542;51.700;8.846;2023-02-22T05:00:44;139.60;;;43.33;;
50585;SDS011;36542;51.700;8.846;2023-02-22T05:03:10;144.57;;;45.07;;
50585;SDS011;36542;51.700;8.846;2023-02-22T05:05:35;124.37;;;41.43;;
50585;SDS011;36542;51.700;8.846;2023-02-22T05:08:01;141.57;;;43.77;;
50585;SDS011;36542;51.700;8.846;2023-02-22T05:10:26;144.37;;;44.07;;
50585;SDS011;36542;51.700;8.846;2023-02-22T05:12:52;137.70;;;43.03;;
50585;SDS011;36542;51.700;8.846;2023-02-22T05:15:18;143.77;;;43.30;;
50585;SDS011;36542;51.700;8.846;2023-02-22T05:17:45;146.63;;;45.30;;
50585;SDS011;36542;51.700;8.846;2023-02-22T05:20:15;137.93;;;44.77;;
50585;SDS011;36542;51.700;8.846;2023-02-22T05:22:51;150.57;;;43.90;;
50585;SDS011;36542;51.700;8.846;2023-02-22T05:25:18;151.03;;;45.73;;
50585;SDS011;36542;51.700;8.846;2023-02-22T05:27:46;135.90;;;44.07;;
50585;SDS011;36542;51.700;8.846;2023-02-22T05:30:23;147.00;;;46.57;;
50585;SDS011;36542;51.700;8.846;2023-02-22T05:32:51;145.27;;;45.87;;
50585;SDS011;36542;51.700;8.846;2023-02-22T05:35:17;147.30;;;46.67;;
50585;SDS011;36542;51.700;8.846;2023-02-22T05:37:43;164.33;;;47.90;;
50585;SDS011;36542;51.700;8.846;2023-02-22T05:40:09;144.10;;;47.07;;
50585;SDS011;36542;51.700;8.846;2023-02-22T05:42:35;154.57;;;44.50;;
50585;SDS011;36542;51.700;8.846;2023-02-22T05:45:00;159.00;;;48.90;;
50585;SDS011;36542;51.700;8.846;2023-02-22T05:47:27;142.50;;;45.10;;
50585;SDS011;36542;51.700;8.846;2023-02-22T05:49:53;146.90;;;47.10;;
50585;SDS011;36542;51.700;8.846;2023-02-22T05:52:18;145.70;;;48.13;;
50585;SDS011;36542;51.700;8.846;2023-02-22T05:54:45;142.40;;;47.33;;
50585;SDS011;36542;51.700;8.846;2023-02-22T05:57:10;149.50;;;46.43;;
50585;SDS011;36542;51.700;8.846;2023-02-22T05:59:36;149.33;;;46.97;;
50585;SDS011;36542;51.700;8.846;2023-02-22T06:02:01;156.77;;;46.80;;
50585;SDS011;36542;51.700;8.846;2023-02-22T06:04:27;142.40;;;46.00;;
50585;SDS011;36542;51.700;8.846;2023-02-22T06:06:52;142.60;;;46.37;;
50585;SDS011;36542;51.700;8.846;2023-02-22T06:09:18;141.20;;;44.70;;
50585;SDS011;36542;51.700;8.846;2023-02-22T06:11:43;137.67;;;45.07;;
50585;SDS011;36542;51.700;8.846;2023-02-22T06:14:09;143.03;;;42.13;;
50585;SDS011;36542;51.700;8.846;2023-02-22T06:16:34;152.43;;;44.93;;
50585;SDS011;36542;51.700;8.846;2023-02-22T06:19:00;138.87;;;44.20;;
50585;SDS011;36542;51.700;8.846;2023-02-22T06:21:25;150.57;;;47.03;;
50585;SDS011;36542;51.700;8.846;2023-02-22T06:23:51;143.20;;;44.00;;
50585;SDS011;36542;51.700;8.846;2023-02-22T06:26:17;145.03;;;43.83;;
50585;SDS011;36542;51.700;8.846;2023-02-22T06:28:43;157.00;;;46.97;;
50585;SDS011;36542;51.700;8.846;2023-02-22T06:31:10;148.37;;;43.97;;
50585;SDS011;36542;51.700;8.846;2023-02-22T06:33:35;140.77;;;44.77;;
50585;SDS011;36542;51.700;8.846;2023-02-22T06:36:01;145.50;;;46.67;;
50585;SDS011;36542;51.700;8.846;2023-02-22T06:38:26;120.97;;;39.17;;
50585;SDS011;36542;51.700;8.846;2023-02-22T06:40:52;125.73;;;41.90;;
50585;SDS011;36542;51.700;8.846;2023-02-22T06:43:19;142.03;;;46.20;;
50585;SDS011;36542;51.700;8.846;2023-02-22T06:45:49;133.57;;;43.70;;
50585;SDS011;36542;51.700;8.846;2023-02-22T06:48:16;124.90;;;41.93;;
50585;SDS011;36542;51.700;8.846;2023-02-22T06:50:42;132.17;;;46.00;;
50585;SDS011;36542;51.700;8.846;2023-02-22T06:53:07;134.47;;;41.80;;
50585;SDS011;36542;51.700;8.846;2023-02-22T06:55:33;114.77;;;41.33;;
50585;SDS011;36542;51.700;8.846;2023-02-22T06:57:59;126.87;;;44.60;;
50585;SDS011;36542;51.700;8.846;2023-02-22T07:00:26;111.30;;;40.83;;
50585;SDS011;36542;51.700;8.846;2023-02-22T07:02:53;117.47;;;43.37;;
50585;SDS011;36542;51.700;8.846;2023-02-22T07:05:20;114.40;;;43.50;;
50585;SDS011;36542;51.700;8.846;2023-02-22T07:07:47;104.53;;;41.43;;
50585;SDS011;36542;51.700;8.846;2023-02-22T07:10:16;108.03;;;43.47;;
50585;SDS011;36542;51.700;8.846;2023-02-22T07:12:50;108.47;;;41.93;;
50585;SDS011;36542;51.700;8.846;2023-02-22T07:15:16;88.43;;;40.60;;
50585;SDS011;36542;51.700;8.846;2023-02-22T07:17:42;97.07;;;42.03;;
50585;SDS011;36542;51.700;8.846;2023-02-22T07:20:08;92.37;;;38.37;;
50585;SDS011;36542;51.700;8.846;2023-02-22T07:22:35;83.50;;;37.40;;
50585;SDS011;36542;51.700;8.846;2023-02-22T07:25:02;82.90;;;37.57;;
50585;SDS011;36542;51.700;8.846;2023-02-22T07:27:27;74.53;;;34.33;;
50585;SDS011;36542;51.700;8.846;2023-02-22T07:29:53;64.57;;;32.63;;
50585;SDS011;36542;51.700;8.846;2023-02-22T07:32:18;66.10;;;33.07;;
50585;SDS011;36542;51.700;8.846;2023-02-22T07:34:44;61.93;;;31.97;;
50585;SDS011;36542;51.700;8.846;2023-02-22T07:37:09;60.57;;;29.90;;
50585;SDS011;36542;51.700;8.846;2023-02-22T07:39:35;59.67;;;30.53;;
50585;SDS011;36542;51.700;8.846;2023-02-22T07:42:01;50.53;;;28.60;;
50585;SDS011;36542;51.700;8.846;2023-02-22T07:44:27;50.07;;;27.00;;
50585;SDS011;36542;51.700;8.846;2023-02-22T07:46:53;50.67;;;28.10;;
50585;SDS011;36542;51.700;8.846;2023-02-22T07:49:18;48.27;;;26.30;;
50585;SDS011;36542;51.700;8.846;2023-02-22T07:51:44;48.53;;;26.47;;
50585;SDS011;36542;51.700;8.846;2023-02-22T07:54:09;51.97;;;28.27;;
50585;SDS011;36542;51.700;8.846;2023-02-22T07:56:35;46.07;;;26.70;;
50585;SDS011;36542;51.700;8.846;2023-02-22T07:59:00;44.17;;;25.13;;
50585;SDS011;36542;51.700;8.846;2023-02-22T08:01:26;46.23;;;25.33;;
50585;SDS011;36542;51.700;8.846;2023-02-22T08:03:52;39.90;;;23.73;;
50585;SDS011;36542;51.700;8.846;2023-02-22T08:06:18;41.23;;;23.37;;
50585;SDS011;36542;51.700;8.846;2023-02-22T08:08:44;46.77;;;25.53;;
50585;SDS011;36542;51.700;8.846;2023-02-22T08:11:10;41.90;;;23.23;;
50585;SDS011;36542;51.700;8.846;2023-02-22T08:13:37;37.97;;;21.60;;
50585;SDS011;36542;51.700;8.846;2023-02-22T08:16:03;37.40;;;22.47;;
50585;SDS011;36542;51.700;8.846;2023-02-22T08:18:29;37.30;;;22.50;;
50585;SDS011;36542;51.700;8.846;2023-02-22T08:20:54;35.03;;;19.73;;
50585;SDS011;36542;51.700;8.846;2023-02-22T08:23:21;33.50;;;20.33;;
50585;SDS011;36542;51.700;8.846;2023-02-22T08:25:49;31.17;;;19.50;;
50585;SDS011;36542;51.700;8.846;2023-02-22T08:28:17;33.50;;;20.13;;
50585;SDS011;36542;51.700;8.846;2023-02-22T08:30:46;35.50;;;21.60;;
50585;SDS011;36542;51.700;8.846;2023-02-22T08:33:12;27.93;;;18.20;;
50585;SDS011;36542;51.700;8.846;2023-02-22T08:35:40;28.07;;;18.23;;
50585;SDS011;36542;51.700;8.846;2023-02-22T08:38:07;29.37;;;18.60;;
50585;SDS011;36542;51.700;8.846;2023-02-22T08:40:39;29.67;;;18.27;;
50585;SDS011;36542;51.700;8.846;2023-02-22T08:43:04;28.47;;;18.97;;
50585;SDS011;36542;51.700;8.846;2023-02-22T08:45:30;29.43;;;18.53;;
50585;SDS011;36542;51.700;8.846;2023-02-22T08:47:56;28.53;;;17.93;;
50585;SDS011;36542;51.700;8.846;2023-02-22T08:50:27;26.67;;;17.57;;
50585;SDS011;36542;51.700;8.846;2023-02-22T08:52:55;24.33;;;15.97;;
50585;SDS011;36542;51.700;8.846;2023-02-22T08:55:26;22.97;;;16.30;;
50585;SDS011;36542;51.700;8.846;2023-02-22T08:57:54;24.93;;;16.87;;
50585;SDS011;36542;51.700;8.846;2023-02-22T09:00:20;26.67;;;17.37;;
50585;SDS011;36542;51.700;8.846;2023-02-22T09:02:49;22.70;;;15.63;;
50585;SDS011;36542;51.700;8.846;2023-02-22T09:05:15;24.93;;;15.37;;
50585;SDS011;36542;51.700;8.846;2023-02-22T09:07:41;24.03;;;15.60;;
50585;SDS011;36542;51.700;8.846;2023-02-22T09:10:18;22.60;;;15.70;;
50585;SDS011;36542;51.700;8.846;2023-02-22T09:12:49;20.17;;;15.00;;
50585;SDS011;36542;51.700;8.846;2023-02-22T09:15:15;19.67;;;13.90;;
50585;SDS011;36542;51.700;8.846;2023-02-22T09:17:41;19.30;;;13.73;;
50585;SDS011;36542;51.700;8.846;2023-02-22T09:20:07;20.67;;;13.80;;
50585;SDS011;36542;51.700;8.846;2023-02-22T09:22:35;19.90;;;14.37;;
50585;SDS011;36542;51.700;8.846;2023-02-22T09:25:01;19.03;;;14.10;;
50585;SDS011;36542;51.700;8.846;2023-02-22T09:27:26;19.90;;;14.27;;
50585;SDS011;36542;51.700;8.846;2023-02-22T09:29:52;21.83;;;15.30;;
50585;SDS011;36542;51.700;8.846;2023-02-22T09:32:18;19.03;;;14.07;;
50585;SDS011;36542;51.700;8.846;2023-02-22T09:34:44;21.93;;;14.13;;
50585;SDS011;36542;51.700;8.846;2023-02-22T09:37:11;20.37;;;14.43;;
50585;SDS011;36542;51.700;8.846;2023-02-22T09:39:37;20.50;;;13.53;;
50585;SDS011;36542;51.700;8.846;2023-02-22T09:45:22;18.40;;;13.57;;
50585;SDS011;36542;51.700;8.846;2023-02-22T09:47:52;18.63;;;12.83;;
50585;SDS011;36542;51.700;8.846;2023-02-22T09:50:23;18.80;;;13.57;;
50585;SDS011;36542;51.700;8.846;2023-02-22T09:53:01;16.93;;;13.00;;
50585;SDS011;36542;51.700;8.846;2023-02-22T09:55:31;18.90;;;13.53;;
50585;SDS011;36542;51.700;8.846;2023-02-22T09:57:58;18.47;;;13.67;;
50585;SDS011;36542;51.700;8.846;2023-02-22T10:00:34;17.90;;;13.83;;
50585;SDS011;36542;51.700;8.846;2023-02-22T10:05:53;15.43;;;12.30;;
50585;SDS011;36542;51.700;8.846;2023-02-22T10:08:26;16.47;;;12.53;;
50585;SDS011;36542;51.700;8.846;2023-02-22T10:11:05;18.37;;;12.73;;
50585;SDS011;36542;51.700;8.846;2023-02-22T10:13:45;19.40;;;13.60;;
50585;SDS011;36542;51.700;8.846;2023-02-22T10:16:20;17.90;;;12.63;;
50585;SDS011;36542;51.700;8.846;2023-02-22T10:18:55;19.83;;;13.43;;
50585;SDS011;36542;51.700;8.846;2023-02-22T10:26:53;17.97;;;12.77;;
50585;SDS011;36542;51.700;8.846;2023-02-22T10:29:39;16.40;;;12.23;;
50585;SDS011;36542;51.700;8.846;2023-02-22T10:32:14;19.47;;;12.63;;
50585;SDS011;36542;51.700;8.846;2023-02-22T10:34:48;16.97;;;12.67;;
50585;SDS011;36542;51.700;8.846;2023-02-22T10:40:01;16.27;;;12.17;;
50585;SDS011;36542;51.700;8.846;2023-02-22T10:42:41;17.03;;;11.97;;
50585;SDS011;36542;51.700;8.846;2023-02-22T10:45:15;20.40;;;13.00;;
50585;SDS011;36542;51.700;8.846;2023-02-22T10:47:53;18.67;;;13.17;;
50585;SDS011;36542;51.700;8.846;2023-02-22T10:50:20;18.30;;;13.20;;
50585;SDS011;36542;51.700;8.846;2023-02-22T10:52:46;17.07;;;13.00;;
50585;SDS011;36542;51.700;8.846;2023-02-22T10:55:13;18.77;;;12.93;;
50585;SDS011;36542;51.700;8.846;2023-02-22T10:57:40;17.87;;;12.13;;
50585;SDS011;36542;51.700;8.846;2023-02-22T11:02:57;16.20;;;12.13;;
50585;SDS011;36542;51.700;8.846;2023-02-22T11:05:38;20.53;;;14.33;;
50585;SDS011;36542;51.700;8.846;2023-02-22T11:10:49;19.77;;;13.07;;
50585;SDS011;36542;51.700;8.846;2023-02-22T11:13:29;20.47;;;13.33;;
50585;SDS011;36542;51.700;8.846;2023-02-22T11:16:01;20.23;;;13.17;;
50585;SDS011;36542;51.700;8.846;2023-02-22T11:18:41;17.47;;;12.27;;
50585;SDS011;36542;51.700;8.846;2023-02-22T11:21:08;16.73;;;11.93;;
50585;SDS011;36542;51.700;8.846;2023-02-22T11:23:36;18.27;;;12.97;;
50585;SDS011;36542;51.700;8.846;2023-02-22T11:26:09;18.27;;;12.90;;
50585;SDS011;36542;51.700;8.846;2023-02-22T11:28:41;15.97;;;11.83;;
50585;SDS011;36542;51.700;8.846;2023-02-22T11:33:47;15.73;;;11.67;;
50585;SDS011;36542;51.700;8.846;2023-02-22T11:36:32;17.97;;;12.40;;
50585;SDS011;36542;51.700;8.846;2023-02-22T11:39:05;15.67;;;11.83;;
50585;SDS011;36542;51.700;8.846;2023-02-22T11:41:45;18.00;;;11.83;;
50585;SDS011;36542;51.700;8.846;2023-02-22T11:44:28;17.10;;;12.17;;
50585;SDS011;36542;51.700;8.846;2023-02-22T11:46:56;16.07;;;11.93;;
50585;SDS011;36542;51.700;8.846;2023-02-22T11:49:34;20.10;;;13.43;;
50585;SDS011;36542;51.700;8.846;2023-02-22T11:52:21;19.30;;;13.77;;
50585;SDS011;36542;51.700;8.846;2023-02-22T11:57:52;20.40;;;13.67;;
50585;SDS011;36542;51.700;8.846;2023-02-22T12:06:50;19.13;;;13.80;;
50585;SDS011;36542;51.700;8.846;2023-02-22T12:09:39;16.73;;;12.97;;
50585;SDS011;36542;51.700;8.846;2023-02-22T12:15:29;18.10;;;12.67;;
50585;SDS011;36542;51.700;8.846;2023-02-22T12:18:08;19.60;;;14.37;;
50585;SDS011;36542;51.700;8.846;2023-02-22T12:20:50;18.83;;;12.57;;
50585;SDS011;36542;51.700;8.846;2023-02-22T12:23:40;16.07;;;11.83;;
50585;SDS011;36542;51.700;8.846;2023-02-22T12:32:11;13.40;;;10.70;;
50585;SDS011;36542;51.700;8.846;2023-02-22T12:35:20;17.17;;;11.40;;
50585;SDS011;36542;51.700;8.846;2023-02-22T12:37:59;15.33;;;10.23;;
50585;SDS011;36542;51.700;8.846;2023-02-22T12:40:40;15.37;;;11.03;;
50585;SDS011;36542;51.700;8.846;2023-02-22T12:43:21;15.80;;;11.20;;
50585;SDS011;36542;51.700;8.846;2023-02-22T12:46:02;12.90;;;10.50;;
50585;SDS011;36542;51.700;8.846;2023-02-22T12:49:04;15.27;;;10.47;;
50585;SDS011;36542;51.700;8.846;2023-02-22T12:51:50;14.27;;;10.60;;
50585;SDS011;36542;51.700;8.846;2023-02-22T12:54:38;14.37;;;10.67;;
50585;SDS011;36542;51.700;8.846;2023-02-22T12:57:14;15.57;;;11.20;;
50585;SDS011;36542;51.700;8.846;2023-02-22T12:59:52;14.43;;;9.97;;
50585;SDS011;36542;51.700;8.846;2023-02-22T13:02:43;17.97;;;10.80;;
50585;SDS011;36542;51.700;8.846;2023-02-22T13:05:15;14.23;;;10.90;;
50585;SDS011;36542;51.700;8.846;2023-02-22T13:08:26;15.13;;;10.67;;
50585;SDS011;36542;51.700;8.846;2023-02-22T13:10:52;13.77;;;9.93;;
50585;SDS011;36542;51.700;8.846;2023-02-22T13:19:25;14.97;;;9.90;;
50585;SDS011;36542;51.700;8.846;2023-02-22T13:21:46;12.20;;;9.50;;
50585;SDS011;36542;51.700;8.846;2023-02-22T13:24:18;13.97;;;9.47;;
50585;SDS011;36542;51.700;8.846;2023-02-22T13:26:46;13.73;;;9.60;;
50585;SDS011;36542;51.700;8.846;2023-02-22T13:29:37;13.37;;;9.00;;
50585;SDS011;36542;51.700;8.846;2023-02-22T13:32:31;13.10;;;8.57;;
50585;SDS011;36542;51.700;8.846;2023-02-22T13:35:20;9.73;;;8.00;;
50585;SDS011;36542;51.700;8.846;2023-02-22T13:38:06;11.27;;;8.10;;
50585;SDS011;36542;51.700;8.846;2023-02-22T13:40:49;13.27;;;8.57;;
50585;SDS011;36542;51.700;8.846;2023-02-22T13:43:35;11.83;;;8.40;;
50585;SDS011;36542;51.700;8.846;2023-02-22T13:49:22;13.77;;;9.13;;
50585;SDS011;36542;51.700;8.846;2023-02-22T13:52:11;12.33;;;9.43;;
50585;SDS011;36542;51.700;8.846;2023-02-22T13:57:26;11.63;;;8.57;;
50585;SDS011;36542;51.700;8.846;2023-02-22T14:03:00;13.33;;;9.20;;
50585;SDS011;36542;51.700;8.846;2023-02-22T14:08:05;10.17;;;7.87;;
50585;SDS011;36542;51.700;8.846;2023-02-22T14:10:55;11.07;;;8.97;;
50585;SDS011;36542;51.700;8.846;2023-02-22T14:13:25;11.90;;;8.80;;
50585;SDS011;36542;51.700;8.846;2023-02-22T14:23:47;12.67;;;7.83;;
50585;SDS011;36542;51.700;8.846;2023-02-22T14:31:30;13.30;;;8.73;;
50585;SDS011;36542;51.700;8.846;2023-02-22T14:33:59;11.13;;;8.57;;
50585;SDS011;36542;51.700;8.846;2023-02-22T14:36:27;9.73;;;7.73;;
50585;SDS011;36542;51.700;8.846;2023-02-22T14:39:05;11.23;;;8.37;;
50585;SDS011;36542;51.700;8.846;2023-02-22T14:41:35;16.20;;;10.23;;
50585;SDS011;36542;51.700;8.846;2023-02-22T14:44:03;9.37;;;7.40;;
50585;SDS011;36542;51.700;8.846;2023-02-22T14:46:32;26.40;;;14.27;;
50585;SDS011;36542;51.700;8.846;2023-02-22T14:49:02;17.03;;;10.33;;
50585;SDS011;36542;51.700;8.846;2023-02-22T14:51:38;10.10;;;7.70;;
50585;SDS011;36542;51.700;8.846;2023-02-22T14:54:08;9.90;;;8.20;;
50585;SDS011;36542;51.700;8.846;2023-02-22T14:59:51;8.10;;;6.20;;
50585;SDS011;36542;51.700;8.846;2023-02-22T15:02:17;8.13;;;6.43;;
50585;SDS011;36542;51.700;8.846;2023-02-22T15:04:54;11.77;;;6.17;;
50585;SDS011;36542;51.700;8.846;2023-02-22T15:09:51;8.07;;;6.47;;
50585;SDS011;36542;51.700;8.846;2023-02-22T15:12:28;12.43;;;7.00;;
50585;SDS011;36542;51.700;8.846;2023-02-22T15:15:11;9.20;;;6.63;;
50585;SDS011;36542;51.700;8.846;2023-02-22T15:17:41;9.03;;;7.00;;
50585;SDS011;36542;51.700;8.846;2023-02-22T15:20:11;8.63;;;6.10;;
50585;SDS011;36542;51.700;8.846;2023-02-22T15:22:40;10.23;;;7.03;;
50585;SDS011;36542;51.700;8.846;2023-02-22T15:25:07;11.47;;;7.47;;
50585;SDS011;36542;51.700;8.846;2023-02-22T15:27:34;9.90;;;7.17;;
50585;SDS011;36542;51.700;8.846;2023-02-22T15:30:02;8.73;;;6.93;;
50585;SDS011;36542;51.700;8.846;2023-02-22T15:32:38;9.30;;;7.10;;
50585;SDS011;36542;51.700;8.846;2023-02-22T15:35:10;8.63;;;7.07;;
50585;SDS011;36542;51.700;8.846;2023-02-22T15:37:37;9.57;;;7.53;;
50585;SDS011;36542;51.700;8.846;2023-02-22T15:40:07;10.33;;;7.30;;
50585;SDS011;36542;51.700;8.846;2023-02-22T15:42:46;9.93;;;7.80;;
50585;SDS011;36542;51.700;8.846;2023-02-22T15:45:14;9.13;;;7.50;;
50585;SDS011;36542;51.700;8.846;2023-02-22T15:47:43;9.83;;;7.60;;
50585;SDS011;36542;51.700;8.846;2023-02-22T15:55:24;8.77;;;6.97;;
50585;SDS011;36542;51.700;8.846;2023-02-22T15:57:52;9.70;;;7.37;;
50585;SDS011;36542;51.700;8.846;2023-02-22T16:00:23;11.50;;;7.60;;
50585;SDS011;36542;51.700;8.846;2023-02-22T16:02:59;11.10;;;7.67;;
50585;SDS011;36542;51.700;8.846;2023-02-22T16:05:30;11.63;;;6.83;;
50585;SDS011;36542;51.700;8.846;2023-02-22T16:08:10;10.63;;;7.70;;
50585;SDS011;36542;51.700;8.846;2023-02-22T16:10:40;8.03;;;6.73;;
50585;SDS011;36542;51.700;8.846;2023-02-22T16:13:20;9.17;;;6.90;;
50585;SDS011;36542;51.700;8.846;2023-02-22T16:16:01;9.40;;;7.63;;
50585;SDS011;36542;51.700;8.846;2023-02-22T16:21:04;10.67;;;7.93;;
50585;SDS011;36542;51.700;8.846;2023-02-22T16:23:54;13.60;;;8.97;;
50585;SDS011;36542;51.700;8.846;2023-02-22T16:28:52;14.93;;;9.67;;
50585;SDS011;36542;51.700;8.846;2023-02-22T16:31:25;11.87;;;9.77;;
50585;SDS011;36542;51.700;8.846;2023-02-22T16:34:00;11.93;;;8.40;;